sensor_id;sensor_type;location;lat;lon;timestamp;temperature;humidity
18141;DHT22;9196;49.194;12.526;2023-07-29T00:00:08;18.70;99.90
18141;DHT22;9196;49.194;12.526;2023-07-29T00:02:36;18.70;99.90
18141;DHT22;9196;49.194;12.526;2023-07-29T00:05:03;18.70;99.90
18141;DHT22;9196;49.194;12.526;2023-07-29T00:07:31;18.70;99.90
18141;DHT22;9196;49.194;12.526;2023-07-29T00:09:58;18.70;99.90
18141;DHT22;9196;49.194;12.526;2023-07-29T00:12:25;18.70;99.90
18141;DHT22;9196;49.194;12.526;2023-07-29T00:14:51;18.60;99.90
18141;DHT22;9196;49.194;12.526;2023-07-29T00:17:18;18.70;99.90
18141;DHT22;9196;49.194;12.526;2023-07-29T00:19:46;18.60;99.90
18141;DHT22;9196;49.194;12.526;2023-07-29T00:22:13;18.60;99.90
18141;DHT22;9196;49.194;12.526;2023-07-29T00:24:41;18.60;99.90
18141;DHT22;9196;49.194;12.526;2023-07-29T00:27:08;18.70;99.90
18141;DHT22;9196;49.194;12.526;2023-07-29T00:29:34;18.70;99.90
18141;DHT22;9196;49.194;12.526;2023-07-29T00:32:01;18.60;99.90
18141;DHT22;9196;49.194;12.526;2023-07-29T00:34:28;18.60;99.90
18141;DHT22;9196;49.194;12.526;2023-07-29T00:36:56;18.60;99.90
18141;DHT22;9196;49.194;12.526;2023-07-29T00:39:23;18.50;99.90
18141;DHT22;9196;49.194;12.526;2023-07-29T00:41:51;18.50;99.90
18141;DHT22;9196;49.194;12.526;2023-07-29T00:44:18;18.50;99.90
18141;DHT22;9196;49.194;12.526;2023-07-29T00:46:46;18.40;99.90
18141;DHT22;9196;49.194;12.526;2023-07-29T00:49:13;18.30;99.90
18141;DHT22;9196;49.194;12.526;2023-07-29T00:51:40;18.20;99.90
18141;DHT22;9196;49.194;12.526;2023-07-29T00:54:07;18.20;99.90
18141;DHT22;9196;49.194;12.526;2023-07-29T00:56:33;18.20;99.90
18141;DHT22;9196;49.194;12.526;2023-07-29T00:59:03;18.30;99.90
18141;DHT22;9196;49.194;12.526;2023-07-29T01:01:30;18.30;99.90
18141;DHT22;9196;49.194;12.526;2023-07-29T01:03:57;18.30;99.90
18141;DHT22;9196;49.194;12.526;2023-07-29T01:06:29;18.40;99.90
18141;DHT22;9196;49.194;12.526;2023-07-29T01:09:03;18.40;99.90
18141;DHT22;9196;49.194;12.526;2023-07-29T01:11:35;18.40;99.90
18141;DHT22;9196;49.194;12.526;2023-07-29T01:14:12;18.40;99.90
18141;DHT22;9196;49.194;12.526;2023-07-29T01:16:48;18.40;99.90
18141;DHT22;9196;49.194;12.526;2023-07-29T01:19:26;18.40;99.90
18141;DHT22;9196;49.194;12.526;2023-07-29T01:21:58;18.50;99.90
18141;DHT22;9196;49.194;12.526;2023-07-29T01:24:27;18.40;99.90
18141;DHT22;9196;49.194;12.526;2023-07-29T01:26:54;18.40;99.90
18141;DHT22;9196;49.194;12.526;2023-07-29T01:29:20;18.40;99.90
18141;DHT22;9196;49.194;12.526;2023-07-29T01:31:51;18.40;99.90
18141;DHT22;9196;49.194;12.526;2023-07-29T01:34:26;18.40;99.90
18141;DHT22;9196;49.194;12.526;2023-07-29T01:36:54;18.30;99.90
18141;DHT22;9196;49.194;12.526;2023-07-29T01:39:24;18.20;99.90
18141;DHT22;9196;49.194;12.526;2023-07-29T01:41:53;18.20;99.90
18141;DHT22;9196;49.194;12.526;2023-07-29T01:44:20;18.20;99.90
18141;DHT22;9196;49.194;12.526;2023-07-29T01:46:47;18.30;99.90
18141;DHT22;9196;49.194;12.526;2023-07-29T01:49:15;18.30;99.90
18141;DHT22;9196;49.194;12.526;2023-07-29T01:51:42;18.30;99.90
18141;DHT22;9196;49.194;12.526;2023-07-29T01:54:09;18.30;99.90
18141;DHT22;9196;49.194;12.526;2023-07-29T01:56:36;18.40;99.90
18141;DHT22;9196;49.194;12.526;2023-07-29T01:59:04;18.30;99.90
18141;DHT22;9196;49.194;12.526;2023-07-29T02:01:31;18.20;99.90
18141;DHT22;9196;49.194;12.526;2023-07-29T02:03:57;18.30;99.90
18141;DHT22;9196;49.194;12.526;2023-07-29T02:06:24;18.30;99.90
18141;DHT22;9196;49.194;12.526;2023-07-29T02:08:53;18.20;99.90
18141;DHT22;9196;49.194;12.526;2023-07-29T02:11:20;18.10;99.90
18141;DHT22;9196;49.194;12.526;2023-07-29T02:13:52;18.10;99.90
18141;DHT22;9196;49.194;12.526;2023-07-29T02:16:20;18.00;99.90
18141;DHT22;9196;49.194;12.526;2023-07-29T02:18:48;17.90;99.90
18141;DHT22;9196;49.194;12.526;2023-07-29T02:21:15;18.00;99.90
18141;DHT22;9196;49.194;12.526;2023-07-29T02:23:42;17.90;99.90
18141;DHT22;9196;49.194;12.526;2023-07-29T02:26:09;18.00;99.90
18141;DHT22;9196;49.194;12.526;2023-07-29T02:28:36;17.90;99.90
18141;DHT22;9196;49.194;12.526;2023-07-29T02:31:11;17.90;99.90
18141;DHT22;9196;49.194;12.526;2023-07-29T02:33:40;17.90;99.90
18141;DHT22;9196;49.194;12.526;2023-07-29T02:36:07;17.90;99.90
18141;DHT22;9196;49.194;12.526;2023-07-29T02:38:33;17.90;99.90
18141;DHT22;9196;49.194;12.526;2023-07-29T02:41:00;17.90;99.90
18141;DHT22;9196;49.194;12.526;2023-07-29T02:43:27;17.90;99.90
18141;DHT22;9196;49.194;12.526;2023-07-29T02:45:54;18.00;99.90
18141;DHT22;9196;49.194;12.526;2023-07-29T02:48:20;18.00;99.90
18141;DHT22;9196;49.194;12.526;2023-07-29T02:50:49;18.10;99.90
18141;DHT22;9196;49.194;12.526;2023-07-29T02:53:15;18.10;99.90
18141;DHT22;9196;49.194;12.526;2023-07-29T02:55:42;18.10;99.90
18141;DHT22;9196;49.194;12.526;2023-07-29T02:58:09;18.00;99.90
18141;DHT22;9196;49.194;12.526;2023-07-29T03:00:36;18.00;99.90
18141;DHT22;9196;49.194;12.526;2023-07-29T03:03:02;18.00;99.90
18141;DHT22;9196;49.194;12.526;2023-07-29T03:05:29;18.00;99.90
18141;DHT22;9196;49.194;12.526;2023-07-29T03:07:58;18.00;99.90
18141;DHT22;9196;49.194;12.526;2023-07-29T03:10:24;17.90;99.90
18141;DHT22;9196;49.194;12.526;2023-07-29T03:12:54;17.80;99.90
18141;DHT22;9196;49.194;12.526;2023-07-29T03:15:23;17.80;99.90
18141;DHT22;9196;49.194;12.526;2023-07-29T03:17:50;17.80;99.90
18141;DHT22;9196;49.194;12.526;2023-07-29T03:20:17;17.80;99.90
18141;DHT22;9196;49.194;12.526;2023-07-29T03:22:44;17.90;99.90
18141;DHT22;9196;49.194;12.526;2023-07-29T03:25:13;17.90;99.90
18141;DHT22;9196;49.194;12.526;2023-07-29T03:27:39;17.90;99.90
18141;DHT22;9196;49.194;12.526;2023-07-29T03:30:07;17.90;99.90
18141;DHT22;9196;49.194;12.526;2023-07-29T03:32:33;17.90;99.90
18141;DHT22;9196;49.194;12.526;2023-07-29T03:35:00;17.90;99.90
18141;DHT22;9196;49.194;12.526;2023-07-29T03:37:27;17.90;99.90
18141;DHT22;9196;49.194;12.526;2023-07-29T03:39:54;17.90;99.90
18141;DHT22;9196;49.194;12.526;2023-07-29T03:42:22;18.00;99.90
18141;DHT22;9196;49.194;12.526;2023-07-29T03:44:49;18.00;99.90
18141;DHT22;9196;49.194;12.526;2023-07-29T03:47:15;17.90;99.90
18141;DHT22;9196;49.194;12.526;2023-07-29T03:49:42;17.90;99.90
18141;DHT22;9196;49.194;12.526;2023-07-29T03:52:09;17.90;99.90
18141;DHT22;9196;49.194;12.526;2023-07-29T03:54:36;17.80;99.90
18141;DHT22;9196;49.194;12.526;2023-07-29T03:57:03;17.70;99.90
18141;DHT22;9196;49.194;12.526;2023-07-29T03:59:31;17.70;99.90
18141;DHT22;9196;49.194;12.526;2023-07-29T04:01:58;17.70;99.90
18141;DHT22;9196;49.194;12.526;2023-07-29T04:04:25;17.70;99.90
18141;DHT22;9196;49.194;12.526;2023-07-29T04:06:52;17.70;99.90
18141;DHT22;9196;49.194;12.526;2023-07-29T04:09:19;17.60;99.90
18141;DHT22;9196;49.194;12.526;2023-07-29T04:11:46;17.60;99.90
18141;DHT22;9196;49.194;12.526;2023-07-29T04:14:12;17.70;99.90
18141;DHT22;9196;49.194;12.526;2023-07-29T04:16:41;17.70;99.90
18141;DHT22;9196;49.194;12.526;2023-07-29T04:19:07;17.70;99.90
18141;DHT22;9196;49.194;12.526;2023-07-29T04:21:34;17.80;99.90
18141;DHT22;9196;49.194;12.526;2023-07-29T04:24:01;17.80;99.90
18141;DHT22;9196;49.194;12.526;2023-07-29T04:26:28;17.80;99.90
18141;DHT22;9196;49.194;12.526;2023-07-29T04:28:55;17.80;99.90
18141;DHT22;9196;49.194;12.526;2023-07-29T04:31:22;17.80;99.90
18141;DHT22;9196;49.194;12.526;2023-07-29T04:33:50;17.80;99.90
18141;DHT22;9196;49.194;12.526;2023-07-29T04:36:17;17.80;99.90
18141;DHT22;9196;49.194;12.526;2023-07-29T04:38:43;17.80;99.90
18141;DHT22;9196;49.194;12.526;2023-07-29T04:41:10;17.80;99.90
18141;DHT22;9196;49.194;12.526;2023-07-29T04:43:37;17.80;99.90
18141;DHT22;9196;49.194;12.526;2023-07-29T04:46:06;17.80;99.90
18141;DHT22;9196;49.194;12.526;2023-07-29T04:48:33;17.80;99.90
18141;DHT22;9196;49.194;12.526;2023-07-29T04:51:02;17.80;99.90
18141;DHT22;9196;49.194;12.526;2023-07-29T04:53:29;17.90;99.90
18141;DHT22;9196;49.194;12.526;2023-07-29T04:55:55;18.00;99.90
18141;DHT22;9196;49.194;12.526;2023-07-29T04:58:22;18.10;99.90
18141;DHT22;9196;49.194;12.526;2023-07-29T05:00:49;18.10;99.90
18141;DHT22;9196;49.194;12.526;2023-07-29T05:03:16;18.10;99.90
18141;DHT22;9196;49.194;12.526;2023-07-29T05:05:43;18.20;99.90
18141;DHT22;9196;49.194;12.526;2023-07-29T05:08:11;18.30;99.90
18141;DHT22;9196;49.194;12.526;2023-07-29T05:10:38;18.30;99.90
18141;DHT22;9196;49.194;12.526;2023-07-29T05:13:05;18.40;99.90
18141;DHT22;9196;49.194;12.526;2023-07-29T05:15:32;18.50;99.90
18141;DHT22;9196;49.194;12.526;2023-07-29T05:17:58;18.60;99.90
18141;DHT22;9196;49.194;12.526;2023-07-29T05:20:25;18.60;99.90
18141;DHT22;9196;49.194;12.526;2023-07-29T05:22:52;18.60;99.90
18141;DHT22;9196;49.194;12.526;2023-07-29T05:25:20;18.60;99.90
18141;DHT22;9196;49.194;12.526;2023-07-29T05:27:47;18.50;99.90
18141;DHT22;9196;49.194;12.526;2023-07-29T05:30:14;18.50;99.90
18141;DHT22;9196;49.194;12.526;2023-07-29T05:32:40;18.60;99.90
18141;DHT22;9196;49.194;12.526;2023-07-29T05:35:07;18.50;99.90
18141;DHT22;9196;49.194;12.526;2023-07-29T05:37:37;18.30;99.90
18141;DHT22;9196;49.194;12.526;2023-07-29T05:40:05;18.30;99.90
18141;DHT22;9196;49.194;12.526;2023-07-29T05:42:34;18.30;99.90
18141;DHT22;9196;49.194;12.526;2023-07-29T05:45:01;18.20;99.90
18141;DHT22;9196;49.194;12.526;2023-07-29T05:47:28;18.20;99.90
18141;DHT22;9196;49.194;12.526;2023-07-29T05:49:55;18.20;99.90
18141;DHT22;9196;49.194;12.526;2023-07-29T05:52:21;18.30;99.90
18141;DHT22;9196;49.194;12.526;2023-07-29T05:54:49;18.40;99.90
18141;DHT22;9196;49.194;12.526;2023-07-29T05:57:15;18.50;99.90
18141;DHT22;9196;49.194;12.526;2023-07-29T05:59:44;18.60;99.90
18141;DHT22;9196;49.194;12.526;2023-07-29T06:02:10;18.60;99.90
18141;DHT22;9196;49.194;12.526;2023-07-29T06:04:37;18.70;99.90
18141;DHT22;9196;49.194;12.526;2023-07-29T06:07:05;18.60;99.90
18141;DHT22;9196;49.194;12.526;2023-07-29T06:09:31;18.60;99.90
18141;DHT22;9196;49.194;12.526;2023-07-29T06:11:58;18.60;99.90
18141;DHT22;9196;49.194;12.526;2023-07-29T06:14:25;18.70;99.90
18141;DHT22;9196;49.194;12.526;2023-07-29T06:16:54;18.80;99.90
18141;DHT22;9196;49.194;12.526;2023-07-29T06:19:20;18.90;99.90
18141;DHT22;9196;49.194;12.526;2023-07-29T06:21:48;19.10;99.90
18141;DHT22;9196;49.194;12.526;2023-07-29T06:24:15;19.20;99.90
18141;DHT22;9196;49.194;12.526;2023-07-29T06:26:41;19.40;99.90
18141;DHT22;9196;49.194;12.526;2023-07-29T06:29:08;19.40;99.90
18141;DHT22;9196;49.194;12.526;2023-07-29T06:31:35;19.50;99.90
18141;DHT22;9196;49.194;12.526;2023-07-29T06:34:03;19.70;99.90
18141;DHT22;9196;49.194;12.526;2023-07-29T06:36:30;19.80;99.90
18141;DHT22;9196;49.194;12.526;2023-07-29T06:38:57;19.70;99.90
18141;DHT22;9196;49.194;12.526;2023-07-29T06:41:24;19.60;99.90
18141;DHT22;9196;49.194;12.526;2023-07-29T06:43:51;19.60;99.90
18141;DHT22;9196;49.194;12.526;2023-07-29T06:46:17;19.70;99.90
18141;DHT22;9196;49.194;12.526;2023-07-29T06:48:44;19.90;99.90
18141;DHT22;9196;49.194;12.526;2023-07-29T06:51:12;20.00;99.90
18141;DHT22;9196;49.194;12.526;2023-07-29T06:53:39;20.10;99.90
18141;DHT22;9196;49.194;12.526;2023-07-29T06:56:06;20.20;99.90
18141;DHT22;9196;49.194;12.526;2023-07-29T06:58:33;20.30;99.90
18141;DHT22;9196;49.194;12.526;2023-07-29T07:01:00;20.30;99.90
18141;DHT22;9196;49.194;12.526;2023-07-29T07:03:28;20.30;99.90
18141;DHT22;9196;49.194;12.526;2023-07-29T07:05:55;20.30;99.90
18141;DHT22;9196;49.194;12.526;2023-07-29T07:08:24;20.30;99.90
18141;DHT22;9196;49.194;12.526;2023-07-29T07:10:51;20.30;99.90
18141;DHT22;9196;49.194;12.526;2023-07-29T07:13:17;20.40;99.90
18141;DHT22;9196;49.194;12.526;2023-07-29T07:15:44;20.50;99.90
18141;DHT22;9196;49.194;12.526;2023-07-29T07:18:11;20.40;99.90
18141;DHT22;9196;49.194;12.526;2023-07-29T07:20:38;20.40;99.90
18141;DHT22;9196;49.194;12.526;2023-07-29T07:23:05;20.40;99.90
18141;DHT22;9196;49.194;12.526;2023-07-29T07:25:37;20.40;99.90
18141;DHT22;9196;49.194;12.526;2023-07-29T07:28:04;20.50;99.90
18141;DHT22;9196;49.194;12.526;2023-07-29T07:30:31;20.40;99.90
18141;DHT22;9196;49.194;12.526;2023-07-29T07:32:57;20.50;99.90
18141;DHT22;9196;49.194;12.526;2023-07-29T07:35:24;20.50;99.90
18141;DHT22;9196;49.194;12.526;2023-07-29T07:37:51;20.40;99.90
18141;DHT22;9196;49.194;12.526;2023-07-29T07:40:18;20.50;99.90
18141;DHT22;9196;49.194;12.526;2023-07-29T07:42:46;20.60;99.90
18141;DHT22;9196;49.194;12.526;2023-07-29T07:45:13;20.60;99.90
18141;DHT22;9196;49.194;12.526;2023-07-29T07:47:39;20.50;99.90
18141;DHT22;9196;49.194;12.526;2023-07-29T07:50:07;20.50;99.90
18141;DHT22;9196;49.194;12.526;2023-07-29T07:52:33;20.40;99.90
18141;DHT22;9196;49.194;12.526;2023-07-29T07:55:00;20.30;99.90
18141;DHT22;9196;49.194;12.526;2023-07-29T07:57:27;20.30;99.90
18141;DHT22;9196;49.194;12.526;2023-07-29T07:59:55;20.30;99.90
18141;DHT22;9196;49.194;12.526;2023-07-29T08:02:22;20.30;99.90
18141;DHT22;9196;49.194;12.526;2023-07-29T08:04:49;20.40;99.90
18141;DHT22;9196;49.194;12.526;2023-07-29T08:07:16;20.50;99.90
18141;DHT22;9196;49.194;12.526;2023-07-29T08:09:42;20.50;99.90
18141;DHT22;9196;49.194;12.526;2023-07-29T08:12:09;20.40;99.90
18141;DHT22;9196;49.194;12.526;2023-07-29T08:14:36;20.40;99.90
18141;DHT22;9196;49.194;12.526;2023-07-29T08:17:04;20.40;99.90
18141;DHT22;9196;49.194;12.526;2023-07-29T08:19:31;20.30;99.90
18141;DHT22;9196;49.194;12.526;2023-07-29T08:22:02;20.40;99.90
18141;DHT22;9196;49.194;12.526;2023-07-29T08:24:29;20.20;99.90
18141;DHT22;9196;49.194;12.526;2023-07-29T08:26:55;20.20;99.90
18141;DHT22;9196;49.194;12.526;2023-07-29T08:29:22;20.10;99.90
18141;DHT22;9196;49.194;12.526;2023-07-29T08:31:49;20.00;99.90
18141;DHT22;9196;49.194;12.526;2023-07-29T08:34:18;20.00;99.90
18141;DHT22;9196;49.194;12.526;2023-07-29T08:36:45;20.00;99.90
18141;DHT22;9196;49.194;12.526;2023-07-29T08:39:11;19.90;99.90
18141;DHT22;9196;49.194;12.526;2023-07-29T08:41:49;19.80;99.90
18141;DHT22;9196;49.194;12.526;2023-07-29T08:44:20;19.70;99.90
18141;DHT22;9196;49.194;12.526;2023-07-29T08:46:48;19.80;99.90
18141;DHT22;9196;49.194;12.526;2023-07-29T08:49:15;19.70;99.90
18141;DHT22;9196;49.194;12.526;2023-07-29T08:51:46;19.60;99.90
18141;DHT22;9196;49.194;12.526;2023-07-29T08:54:14;19.50;99.90
18141;DHT22;9196;49.194;12.526;2023-07-29T08:56:41;19.30;99.90
18141;DHT22;9196;49.194;12.526;2023-07-29T08:59:09;19.10;99.90
18141;DHT22;9196;49.194;12.526;2023-07-29T09:01:36;19.00;99.90
18141;DHT22;9196;49.194;12.526;2023-07-29T09:04:03;18.80;99.90
18141;DHT22;9196;49.194;12.526;2023-07-29T09:06:31;18.80;99.90
18141;DHT22;9196;49.194;12.526;2023-07-29T09:09:00;18.80;99.90
18141;DHT22;9196;49.194;12.526;2023-07-29T09:11:28;18.70;99.90
18141;DHT22;9196;49.194;12.526;2023-07-29T09:13:55;18.60;99.90
18141;DHT22;9196;49.194;12.526;2023-07-29T09:16:22;18.60;99.90
18141;DHT22;9196;49.194;12.526;2023-07-29T09:18:49;18.70;99.90
18141;DHT22;9196;49.194;12.526;2023-07-29T09:21:17;18.70;99.90
18141;DHT22;9196;49.194;12.526;2023-07-29T09:23:44;18.70;99.90
18141;DHT22;9196;49.194;12.526;2023-07-29T09:26:13;18.80;99.90
18141;DHT22;9196;49.194;12.526;2023-07-29T09:28:40;18.90;99.90
18141;DHT22;9196;49.194;12.526;2023-07-29T09:31:07;18.80;99.90
18141;DHT22;9196;49.194;12.526;2023-07-29T09:33:45;18.90;99.90
18141;DHT22;9196;49.194;12.526;2023-07-29T09:36:11;18.90;99.90
18141;DHT22;9196;49.194;12.526;2023-07-29T09:38:38;19.00;99.90
18141;DHT22;9196;49.194;12.526;2023-07-29T09:41:05;19.10;99.90
18141;DHT22;9196;49.194;12.526;2023-07-29T09:43:34;19.10;99.90
18141;DHT22;9196;49.194;12.526;2023-07-29T09:46:02;19.10;99.90
18141;DHT22;9196;49.194;12.526;2023-07-29T09:48:33;19.20;99.90
18141;DHT22;9196;49.194;12.526;2023-07-29T09:51:00;19.30;99.90
18141;DHT22;9196;49.194;12.526;2023-07-29T09:53:26;19.30;99.90
18141;DHT22;9196;49.194;12.526;2023-07-29T09:55:53;19.20;99.90
18141;DHT22;9196;49.194;12.526;2023-07-29T09:58:27;19.40;99.90
18141;DHT22;9196;49.194;12.526;2023-07-29T10:00:55;19.50;99.90
18141;DHT22;9196;49.194;12.526;2023-07-29T10:03:22;19.40;99.90
18141;DHT22;9196;49.194;12.526;2023-07-29T10:05:49;19.40;99.90
18141;DHT22;9196;49.194;12.526;2023-07-29T10:08:17;19.40;99.90
18141;DHT22;9196;49.194;12.526;2023-07-29T10:10:44;19.30;99.90
18141;DHT22;9196;49.194;12.526;2023-07-29T10:13:12;19.30;99.90
18141;DHT22;9196;49.194;12.526;2023-07-29T10:15:39;19.50;99.90
18141;DHT22;9196;49.194;12.526;2023-07-29T10:18:08;19.50;99.90
18141;DHT22;9196;49.194;12.526;2023-07-29T10:20:35;19.60;99.90
18141;DHT22;9196;49.194;12.526;2023-07-29T10:23:06;19.60;99.90
18141;DHT22;9196;49.194;12.526;2023-07-29T10:25:38;19.60;99.90
18141;DHT22;9196;49.194;12.526;2023-07-29T10:28:06;19.60;99.90
18141;DHT22;9196;49.194;12.526;2023-07-29T10:30:34;19.60;99.90
18141;DHT22;9196;49.194;12.526;2023-07-29T10:33:03;19.70;99.90
18141;DHT22;9196;49.194;12.526;2023-07-29T10:35:32;19.70;99.90
18141;DHT22;9196;49.194;12.526;2023-07-29T10:38:00;19.70;99.90
18141;DHT22;9196;49.194;12.526;2023-07-29T10:40:43;19.70;99.90
18141;DHT22;9196;49.194;12.526;2023-07-29T10:43:12;19.60;99.90
18141;DHT22;9196;49.194;12.526;2023-07-29T10:45:41;19.60;99.90
18141;DHT22;9196;49.194;12.526;2023-07-29T10:48:10;19.60;99.90
18141;DHT22;9196;49.194;12.526;2023-07-29T10:50:39;19.50;99.90
18141;DHT22;9196;49.194;12.526;2023-07-29T10:53:05;19.50;99.90
18141;DHT22;9196;49.194;12.526;2023-07-29T10:55:33;19.50;99.90
18141;DHT22;9196;49.194;12.526;2023-07-29T10:58:07;19.50;99.90
18141;DHT22;9196;49.194;12.526;2023-07-29T11:00:34;19.50;99.90
18141;DHT22;9196;49.194;12.526;2023-07-29T11:03:01;19.50;99.90
18141;DHT22;9196;49.194;12.526;2023-07-29T11:05:43;19.50;99.90
18141;DHT22;9196;49.194;12.526;2023-07-29T11:08:22;19.60;99.90
18141;DHT22;9196;49.194;12.526;2023-07-29T11:11:02;19.60;99.90
18141;DHT22;9196;49.194;12.526;2023-07-29T11:13:29;19.60;99.90
18141;DHT22;9196;49.194;12.526;2023-07-29T11:15:57;19.50;99.90
18141;DHT22;9196;49.194;12.526;2023-07-29T11:18:27;19.50;99.90
18141;DHT22;9196;49.194;12.526;2023-07-29T11:20:57;19.60;99.90
18141;DHT22;9196;49.194;12.526;2023-07-29T11:23:29;19.80;99.90
18141;DHT22;9196;49.194;12.526;2023-07-29T11:25:56;20.10;99.90
18141;DHT22;9196;49.194;12.526;2023-07-29T11:28:23;20.50;99.90
18141;DHT22;9196;49.194;12.526;2023-07-29T11:30:51;20.80;99.90
18141;DHT22;9196;49.194;12.526;2023-07-29T11:33:19;20.90;99.90
18141;DHT22;9196;49.194;12.526;2023-07-29T11:35:46;21.10;99.90
18141;DHT22;9196;49.194;12.526;2023-07-29T11:38:16;21.10;99.90
18141;DHT22;9196;49.194;12.526;2023-07-29T11:40:53;21.30;99.90
18141;DHT22;9196;49.194;12.526;2023-07-29T11:43:20;21.40;99.90
18141;DHT22;9196;49.194;12.526;2023-07-29T11:45:47;21.50;99.90
18141;DHT22;9196;49.194;12.526;2023-07-29T11:48:14;21.60;99.90
18141;DHT22;9196;49.194;12.526;2023-07-29T11:50:41;21.70;99.90
18141;DHT22;9196;49.194;12.526;2023-07-29T11:53:08;21.60;99.90
18141;DHT22;9196;49.194;12.526;2023-07-29T11:55:37;21.70;99.90
18141;DHT22;9196;49.194;12.526;2023-07-29T11:58:04;21.80;99.90
18141;DHT22;9196;49.194;12.526;2023-07-29T12:00:31;21.80;99.90
18141;DHT22;9196;49.194;12.526;2023-07-29T12:02:58;21.70;99.90
18141;DHT22;9196;49.194;12.526;2023-07-29T12:05:26;21.60;99.90
18141;DHT22;9196;49.194;12.526;2023-07-29T12:07:53;21.50;99.90
18141;DHT22;9196;49.194;12.526;2023-07-29T12:10:20;21.30;99.90
18141;DHT22;9196;49.194;12.526;2023-07-29T12:12:50;21.00;99.90
18141;DHT22;9196;49.194;12.526;2023-07-29T12:15:23;21.00;99.90
18141;DHT22;9196;49.194;12.526;2023-07-29T12:17:53;21.00;99.90
18141;DHT22;9196;49.194;12.526;2023-07-29T12:20:21;21.00;99.90
18141;DHT22;9196;49.194;12.526;2023-07-29T12:22:52;21.30;99.90
18141;DHT22;9196;49.194;12.526;2023-07-29T12:25:19;21.70;99.90
18141;DHT22;9196;49.194;12.526;2023-07-29T12:27:48;22.00;99.90
18141;DHT22;9196;49.194;12.526;2023-07-29T12:30:15;22.20;99.90
18141;DHT22;9196;49.194;12.526;2023-07-29T12:32:45;22.40;99.90
18141;DHT22;9196;49.194;12.526;2023-07-29T12:35:13;22.60;99.90
18141;DHT22;9196;49.194;12.526;2023-07-29T12:37:40;22.70;99.90
18141;DHT22;9196;49.194;12.526;2023-07-29T12:40:20;22.90;99.90
18141;DHT22;9196;49.194;12.526;2023-07-29T12:42:50;22.90;99.90
18141;DHT22;9196;49.194;12.526;2023-07-29T12:45:17;22.70;99.90
18141;DHT22;9196;49.194;12.526;2023-07-29T12:47:44;22.80;99.90
18141;DHT22;9196;49.194;12.526;2023-07-29T12:50:11;22.70;99.90
18141;DHT22;9196;49.194;12.526;2023-07-29T12:52:38;22.60;99.90
18141;DHT22;9196;49.194;12.526;2023-07-29T12:55:05;22.50;99.90
18141;DHT22;9196;49.194;12.526;2023-07-29T12:57:34;22.30;99.90
18141;DHT22;9196;49.194;12.526;2023-07-29T13:00:03;22.30;99.90
18141;DHT22;9196;49.194;12.526;2023-07-29T13:02:31;22.60;99.90
18141;DHT22;9196;49.194;12.526;2023-07-29T13:04:57;22.80;99.90
18141;DHT22;9196;49.194;12.526;2023-07-29T13:07:24;22.70;99.90
18141;DHT22;9196;49.194;12.526;2023-07-29T13:09:51;22.60;99.90
18141;DHT22;9196;49.194;12.526;2023-07-29T13:12:18;22.70;99.90
18141;DHT22;9196;49.194;12.526;2023-07-29T13:14:45;22.60;99.90
18141;DHT22;9196;49.194;12.526;2023-07-29T13:17:13;22.50;99.90
18141;DHT22;9196;49.194;12.526;2023-07-29T13:19:40;22.40;99.90
18141;DHT22;9196;49.194;12.526;2023-07-29T13:22:07;22.40;99.90
18141;DHT22;9196;49.194;12.526;2023-07-29T13:24:33;22.30;99.90
18141;DHT22;9196;49.194;12.526;2023-07-29T13:27:00;22.30;99.90
18141;DHT22;9196;49.194;12.526;2023-07-29T13:29:27;22.30;99.90
18141;DHT22;9196;49.194;12.526;2023-07-29T13:31:54;22.40;99.90
18141;DHT22;9196;49.194;12.526;2023-07-29T13:34:22;22.40;99.90
18141;DHT22;9196;49.194;12.526;2023-07-29T13:36:49;22.30;99.90
18141;DHT22;9196;49.194;12.526;2023-07-29T13:39:16;22.50;99.90
18141;DHT22;9196;49.194;12.526;2023-07-29T13:41:42;22.70;99.90
18141;DHT22;9196;49.194;12.526;2023-07-29T13:44:09;22.90;99.90
18141;DHT22;9196;49.194;12.526;2023-07-29T13:46:36;23.10;99.90
18141;DHT22;9196;49.194;12.526;2023-07-29T13:49:03;23.00;99.90
18141;DHT22;9196;49.194;12.526;2023-07-29T13:51:31;22.90;99.90
18141;DHT22;9196;49.194;12.526;2023-07-29T13:53:58;22.90;99.90
18141;DHT22;9196;49.194;12.526;2023-07-29T13:56:24;23.00;99.90
18141;DHT22;9196;49.194;12.526;2023-07-29T13:58:51;23.10;99.90
18141;DHT22;9196;49.194;12.526;2023-07-29T14:01:18;23.40;99.90
18141;DHT22;9196;49.194;12.526;2023-07-29T14:03:45;23.30;99.90
18141;DHT22;9196;49.194;12.526;2023-07-29T14:06:12;23.40;99.90
18141;DHT22;9196;49.194;12.526;2023-07-29T14:08:40;23.40;99.90
18141;DHT22;9196;49.194;12.526;2023-07-29T14:11:07;23.50;99.90
18141;DHT22;9196;49.194;12.526;2023-07-29T14:13:34;23.50;99.90
18141;DHT22;9196;49.194;12.526;2023-07-29T14:16:01;23.30;99.90
18141;DHT22;9196;49.194;12.526;2023-07-29T14:18:28;23.40;99.90
18141;DHT22;9196;49.194;12.526;2023-07-29T14:20:55;23.20;99.90
18141;DHT22;9196;49.194;12.526;2023-07-29T14:23:22;23.30;99.90
18141;DHT22;9196;49.194;12.526;2023-07-29T14:25:50;23.40;99.90
18141;DHT22;9196;49.194;12.526;2023-07-29T14:28:16;23.60;99.90
18141;DHT22;9196;49.194;12.526;2023-07-29T14:30:43;23.90;99.90
18141;DHT22;9196;49.194;12.526;2023-07-29T14:33:10;24.10;99.90
18141;DHT22;9196;49.194;12.526;2023-07-29T14:35:37;24.20;99.90
18141;DHT22;9196;49.194;12.526;2023-07-29T14:38:04;24.10;99.90
18141;DHT22;9196;49.194;12.526;2023-07-29T14:40:31;24.10;99.90
18141;DHT22;9196;49.194;12.526;2023-07-29T14:42:59;24.40;99.90
18141;DHT22;9196;49.194;12.526;2023-07-29T14:45:26;24.40;99.90
18141;DHT22;9196;49.194;12.526;2023-07-29T14:47:53;24.40;99.90
18141;DHT22;9196;49.194;12.526;2023-07-29T14:50:20;24.30;99.90
18141;DHT22;9196;49.194;12.526;2023-07-29T14:52:46;24.20;99.90
18141;DHT22;9196;49.194;12.526;2023-07-29T14:55:13;24.10;99.90
18141;DHT22;9196;49.194;12.526;2023-07-29T14:57:41;24.10;99.90
18141;DHT22;9196;49.194;12.526;2023-07-29T15:00:11;24.40;99.90
18141;DHT22;9196;49.194;12.526;2023-07-29T15:02:38;24.50;99.90
18141;DHT22;9196;49.194;12.526;2023-07-29T15:05:06;24.60;99.90
18141;DHT22;9196;49.194;12.526;2023-07-29T15:07:33;24.70;99.90
18141;DHT22;9196;49.194;12.526;2023-07-29T15:10:00;24.80;99.90
18141;DHT22;9196;49.194;12.526;2023-07-29T15:12:27;25.00;99.90
18141;DHT22;9196;49.194;12.526;2023-07-29T15:14:53;25.20;99.90
18141;DHT22;9196;49.194;12.526;2023-07-29T15:17:22;25.40;99.90
18141;DHT22;9196;49.194;12.526;2023-07-29T15:19:49;25.20;99.90
18141;DHT22;9196;49.194;12.526;2023-07-29T15:22:16;24.90;99.90
18141;DHT22;9196;49.194;12.526;2023-07-29T15:24:43;24.80;99.90
18141;DHT22;9196;49.194;12.526;2023-07-29T15:27:11;24.70;99.90
18141;DHT22;9196;49.194;12.526;2023-07-29T15:29:38;24.30;99.90
18141;DHT22;9196;49.194;12.526;2023-07-29T15:32:06;24.00;99.90